PINE FLAT DAM (PNF)

Elevation: 970' · KINGS R basin · Operator: US Army Corps of Engineers

Provisional data, subject to change.
Query executed Monday at 1:00:24   clock

Select a sensor type for a plot of data.
Note: Reservoir Flows are daily averages.

Earlier

Date RES ELE    STORAGE    RES CHG    TOC STO    ABV TOC    OUTFLOW    INFLOW    FNF    PPT INC    PPTINC4    TEMP MN    TEMP MX    WINDLEN    EVP PAN   
 FEET   AF   AF   AF   AF   CFS   CFS   CFS   INCHES   INCHES   DEG F   DEG F   MILES   INCHES  
08/23/2014 719.16 111860 -430 1000000 -888140 706 507 124 0.00 0.00 -- -- 49 0.25
08/24/2014 718.84 111270 -590 1000000 -888730 702 420 166 e 0.00 0.00 -- -- 52 0.26
08/25/2014 718.92 111410 140 1000000 -888590 398 488 143 0.00 0.00 -- -- 51 0.23
08/26/2014 719.17 111880 470 1000000 -888120 387 637 136 0.00 0.00 -- -- 49 0.24
08/27/2014 719.45 112400 520 1000000 -887600 380 658 245 0.00 0.00 -- -- 53 0.26
08/28/2014 719.70 112860 -- 1000000 -887080 378 630 110 0.00 0.00 -- -- 52 0.27
08/29/2014 720.03 113480 620 1000000 -886520 377 704 216 0.00 0.00 -- -- 52 0.25
08/30/2014 720.21 113820 340 1000000 -886180 376 560 122 e 0.00 0.00 -- -- 51 0.23
08/31/2014 720.29 113970 150 1000000 -886030 371 464 122 e 0.00 0.00 -- -- 58 0.26
09/01/2014 720.43 114230 260 1000000 -885770 367 516 166 0.00 0.00 -- -- 45 0.24
09/02/2014 720.61 114570 340 1000000 -885430 367 555 158 0.00 0.00 -- -- 52 0.25
09/03/2014 720.82 114960 390 1000000 -885040 367 583 163 0.00 0.00 -- -- 55 0.25
09/04/2014 720.90 115110 150 1000000 -884890 361 453 148 0.00 0.00 -- -- 50 0.24
09/05/2014 720.88 115070 -40 1000000 -884930 358 356 118 0.00 0.00 -- -- 52 0.24
09/06/2014 720.98 115260 190 1000000 -884740 358 469 140 0.00 0.00 -- -- 49 0.24
09/07/2014 721.02 115340 80 1000000 -884660 362 415 36 0.00 0.00 -- -- 46 0.22
09/08/2014 721.18 115640 300 1000000 -884360 363 527 195 0.00 0.00 -- -- 40 0.16
09/09/2014 721.19 115660 20 1000000 -884340 361 386 75 0.00 0.00 -- -- 55 0.23
09/10/2014 721.28 115830 170 1000000 -884170 365 467 129 0.00 0.00 -- -- 54 0.24
09/11/2014 721.47 116190 360 1000000 -883810 367 564 204 0.01 0.00 -- -- 52 0.24
09/12/2014 721.66 116550 360 1000000 -883450 365 563 151 0.00 0.00 -- -- 48 0.25
09/13/2014 721.77 116750 200 1000000 -883250 358 477 201 0.01 0.00 -- -- 46 0.22
09/14/2014 721.80 116810 60 1000000 -883190 351 395 94 0.00 0.00 -- -- 52 0.22
09/15/2014 722.10 117380 570 1000000 -882620 355 658 219 0.00 0.00 -- -- 50 0.23
09/16/2014 722.16 117500 120 1000000 -882500 339 412 169 0.00 0.00 -- -- 52 0.22
09/17/2014 722.18 117530 30 1000000 -882470 337 371 86 0.00 0.00 -- -- 47 0.22
09/18/2014 722.24 117650 120 1000000 -882350 342 415 154 0.00 0.00 -- -- 57 0.21
09/19/2014 722.26 117690 40 1000000 -882310 354 387 72 0.00 0.00 -- -- 45 0.19
09/20/2014 722.15 117480 -210 1000000 -882520 -- -- -- -- 0.00 -- -- -- --
09/21/2014 -- -- -- -- -- -- -- -- -- 0.00 -- -- -- --
09/22/2014 -- -- -- -- -- -- -- -- -- -- -- -- -- --

Later | Latest

Warning! This data is preliminary and subject to revision.

Download Data Now Download Data Now | Show PNF Map | Plot PNF Data | 1 Month PNF Data | Real-Time PNF Data | PNF Info